createdAt,value
2022-11-28T00:01:32.405Z,101664.31
2022-11-28T00:04:01.715Z,101661.69
2022-11-28T00:06:30.274Z,101663.47
2022-11-28T00:08:59.829Z,101665.22
2022-11-28T00:11:27.864Z,101666.28
2022-11-28T00:13:56.347Z,101674.03
2022-11-28T00:16:24.990Z,101664.44
2022-11-28T00:18:54.691Z,101661.59
2022-11-28T00:21:24.466Z,101664.16
2022-11-28T00:23:52.843Z,101669.25
2022-11-28T00:26:25.389Z,101665.78
2022-11-28T00:28:53.472Z,101660.72
2022-11-28T00:31:23.707Z,101643.72
2022-11-28T00:33:51.859Z,101663.16
2022-11-28T00:36:20.727Z,101660.53
2022-11-28T00:38:50.728Z,101661.94
2022-11-28T00:41:20.991Z,101658.25
2022-11-28T00:43:50.349Z,101664.16
2022-11-28T00:46:19.949Z,101658.19
2022-11-28T00:48:48.648Z,101654.97
2022-11-28T00:51:18.865Z,101651.25
2022-11-28T00:53:50.089Z,101658.81
2022-11-28T00:56:19.482Z,101657.00
2022-11-28T00:58:49.344Z,101649.22
2022-11-28T01:01:20.224Z,101655.25
2022-11-28T01:03:49.054Z,101652.63
2022-11-28T01:06:23.062Z,101646.59
2022-11-28T01:08:53.055Z,101652.53
2022-11-28T01:11:21.921Z,101654.22
2022-11-28T01:13:50.388Z,101656.03
2022-11-28T01:16:18.566Z,101650.28
2022-11-28T01:18:46.566Z,101646.75
2022-11-28T01:21:15.099Z,101646.63
2022-11-28T01:23:43.117Z,101642.38
2022-11-28T01:26:16.398Z,101634.22
2022-11-28T01:28:44.515Z,101625.75
2022-11-28T01:31:15.760Z,101629.09
2022-11-28T01:33:44.471Z,101627.13
2022-11-28T01:36:13.612Z,101623.50
2022-11-28T01:38:41.780Z,101619.13
2022-11-28T01:41:09.867Z,101625.66
2022-11-28T01:43:58.041Z,101620.78
2022-11-28T01:46:26.203Z,101622.41
2022-11-28T01:48:57.118Z,101620.25
2022-11-28T01:51:25.777Z,101614.16
2022-11-28T01:53:54.333Z,101622.28
2022-11-28T01:56:26.215Z,101618.69
2022-11-28T01:58:59.052Z,101615.91
2022-11-28T02:01:27.393Z,101620.94
2022-11-28T02:03:56.914Z,101611.28
2022-11-28T02:06:26.473Z,101623.50
2022-11-28T02:08:55.607Z,101612.19
2022-11-28T02:11:49.079Z,101615.75
2022-11-28T02:14:39.573Z,101602.84
2022-11-28T02:17:18.291Z,101598.94
2022-11-28T02:20:37.641Z,101615.50
2022-11-28T02:23:13.693Z,101609.25
2022-11-28T02:26:04.715Z,101584.59
2022-11-28T02:29:14.261Z,101610.72
2022-11-28T02:32:11.900Z,101614.78
2022-11-28T02:34:52.117Z,101613.09
2022-11-28T02:37:27.650Z,101619.81
2022-11-28T02:40:08.409Z,101623.38
2022-11-28T02:42:44.777Z,101619.97
2022-11-28T02:45:20.486Z,101616.31
2022-11-28T02:47:55.920Z,101619.84
2022-11-28T02:50:30.079Z,101612.69
2022-11-28T02:53:06.576Z,101620.53
2022-11-28T02:55:37.981Z,101618.91
2022-11-28T02:58:05.988Z,101612.88
2022-11-28T03:00:36.066Z,101620.19
2022-11-28T03:03:21.447Z,101622.78
2022-11-28T03:05:59.118Z,101621.50
2022-11-28T03:08:43.549Z,101625.25
2022-11-28T03:11:20.049Z,101618.56
2022-11-28T03:13:57.829Z,101617.72
2022-11-28T03:16:30.236Z,101618.59
2022-11-28T03:19:07.378Z,101621.16
2022-11-28T03:21:42.053Z,101622.59
2022-11-28T03:24:16.216Z,101623.59
2022-11-28T03:26:53.978Z,101617.75
2022-11-28T03:29:27.365Z,101617.66
2022-11-28T03:32:00.199Z,101611.50
2022-11-28T03:34:34.669Z,101614.91
2022-11-28T03:37:07.305Z,101622.38
2022-11-28T03:39:40.569Z,101621.53
2022-11-28T03:42:12.289Z,101613.78
2022-11-28T03:44:45.698Z,101631.56
2022-11-28T03:47:14.352Z,101626.38
2022-11-28T03:49:49.046Z,101625.53
2022-11-28T03:52:25.071Z,101626.75
2022-11-28T03:54:56.738Z,101636.03
2022-11-28T03:57:34.303Z,101635.16
2022-11-28T04:00:05.937Z,101631.53
2022-11-28T04:02:38.652Z,101626.38
2022-11-28T04:05:16.872Z,101624.50
2022-11-28T04:07:48.407Z,101628.72
2022-11-28T04:10:21.797Z,101626.16
2022-11-28T04:12:56.140Z,101630.41
2022-11-28T04:15:31.888Z,101633.91
2022-11-28T04:18:05.255Z,101631.31
2022-11-28T04:20:40.165Z,101639.22
2022-11-28T04:23:12.637Z,101639.03
2022-11-28T04:25:46.002Z,101645.03
2022-11-28T04:28:19.690Z,101655.44
2022-11-28T04:30:50.817Z,101650.28
2022-11-28T04:33:21.752Z,101643.44
2022-11-28T04:35:54.161Z,101650.28
2022-11-28T04:38:25.485Z,101640.66
2022-11-28T04:40:58.163Z,101645.03
2022-11-28T04:43:31.117Z,101644.47
2022-11-28T04:46:05.503Z,101641.81
2022-11-28T04:48:34.662Z,101646.91
2022-11-28T04:51:15.588Z,101648.84
2022-11-28T04:53:49.659Z,101647.97
2022-11-28T04:56:22.687Z,101647.91
2022-11-28T04:58:52.225Z,101646.13
2022-11-28T05:01:25.799Z,101644.69
2022-11-28T05:03:55.235Z,101641.88
2022-11-28T05:06:29.580Z,101647.25
2022-11-28T05:08:57.597Z,101648.69
2022-11-28T05:11:26.225Z,101658.00
2022-11-28T05:13:54.508Z,101647.66
2022-11-28T05:16:23.245Z,101650.56
2022-11-28T05:18:51.655Z,101654.69
2022-11-28T05:21:19.727Z,101659.06
2022-11-28T05:23:49.803Z,101658.25
2022-11-28T05:26:20.510Z,101665.84
2022-11-28T05:28:51.201Z,101664.25
2022-11-28T05:31:21.348Z,101669.38
2022-11-28T05:33:49.622Z,101677.91
2022-11-28T05:36:18.518Z,101670.28
2022-11-28T05:38:46.584Z,101674.41
2022-11-28T05:41:23.736Z,101676.91
2022-11-28T05:43:51.983Z,101648.91
2022-11-28T05:46:20.396Z,101671.91
2022-11-28T05:48:48.597Z,101673.50
2022-11-28T05:51:16.730Z,101670.91
2022-11-28T05:53:44.907Z,101674.38
2022-11-28T05:56:14.404Z,101669.41
2022-11-28T05:58:44.715Z,101678.00
2022-11-28T06:01:14.494Z,101673.94
2022-11-28T06:03:43.469Z,101686.72
2022-11-28T06:06:14.049Z,101693.50
2022-11-28T06:08:42.692Z,101690.13
2022-11-28T06:11:11.313Z,101696.03
2022-11-28T06:13:39.718Z,101689.94
2022-11-28T06:16:13.268Z,101690.78
2022-11-28T06:18:42.012Z,101689.94
2022-11-28T06:21:12.200Z,101695.00
2022-11-28T06:23:40.838Z,101698.31
2022-11-28T06:26:11.470Z,101695.72
2022-11-28T06:28:39.893Z,101694.19
2022-11-28T06:31:13.726Z,101695.84
2022-11-28T06:33:42.359Z,101693.44
2022-11-28T06:36:11.844Z,101692.41
2022-11-28T06:38:39.922Z,101693.25
2022-11-28T06:41:09.778Z,101690.03
2022-11-28T06:43:37.944Z,101683.22
2022-11-28T06:46:06.418Z,101698.19
2022-11-28T06:48:36.049Z,101681.66
2022-11-28T06:51:05.121Z,101680.88
2022-11-28T06:53:33.430Z,101677.78
2022-11-28T06:56:05.917Z,101682.03
2022-11-28T06:58:34.532Z,101676.75
2022-11-28T07:01:08.245Z,101678.47
2022-11-28T07:03:37.980Z,101670.41
2022-11-28T07:06:07.031Z,101682.22
2022-11-28T07:08:35.885Z,101676.72
2022-11-28T07:11:12.416Z,101676.53
2022-11-28T07:13:41.548Z,101680.88
2022-11-28T07:16:14.406Z,101675.19
2022-11-28T07:18:44.099Z,101674.28
2022-11-28T07:21:14.359Z,101668.56
2022-11-28T07:23:42.924Z,101654.13
2022-11-28T07:26:12.862Z,101678.50
2022-11-28T07:28:41.299Z,101667.81
2022-11-28T07:31:11.990Z,101662.66
2022-11-28T07:33:40.895Z,101658.47
2022-11-28T07:36:14.328Z,101662.97
2022-11-28T07:38:42.292Z,101660.38
2022-11-28T07:41:12.275Z,101664.00
2022-11-28T07:43:41.016Z,101649.16
2022-11-28T07:46:11.660Z,101648.13
2022-11-28T07:48:40.220Z,101657.31
2022-11-28T07:51:11.349Z,101654.13
2022-11-28T07:53:39.549Z,101647.13
2022-11-28T07:56:10.174Z,101650.47
2022-11-28T07:58:39.083Z,101645.28
2022-11-28T08:01:10.681Z,101645.63
2022-11-28T08:03:38.869Z,101641.28
2022-11-28T08:06:08.020Z,101636.25
2022-11-28T08:08:37.631Z,101628.53
2022-11-28T08:11:07.621Z,101603.91
2022-11-28T08:13:36.334Z,101634.34
2022-11-28T08:16:06.677Z,101625.53
2022-11-28T08:18:35.123Z,101632.09
2022-11-28T08:21:07.463Z,101631.13
2022-11-28T08:23:37.621Z,101633.06
2022-11-28T08:26:06.997Z,101628.94
2022-11-28T08:28:35.144Z,101628.81
2022-11-28T08:31:10.740Z,101628.19
2022-11-28T08:33:38.962Z,101626.63
2022-11-28T08:36:07.549Z,101633.34
2022-11-28T08:38:35.477Z,101632.19
2022-11-28T08:41:06.428Z,101632.06
2022-11-28T08:43:36.860Z,101623.91
2022-11-28T08:46:05.116Z,101627.22
2022-11-28T08:48:33.157Z,101622.78
2022-11-28T08:51:01.066Z,101622.44
2022-11-28T08:53:29.232Z,101618.75
2022-11-28T08:55:58.190Z,101621.59
2022-11-28T08:58:27.600Z,101614.19
2022-11-28T09:00:55.586Z,101616.31
2022-11-28T09:03:23.645Z,101612.19
2022-11-28T09:05:51.775Z,101613.28
2022-11-28T09:08:21.736Z,101613.19
2022-11-28T09:10:49.687Z,101610.75
2022-11-28T09:13:17.624Z,101603.56
2022-11-28T09:15:51.212Z,101600.06
2022-11-28T09:18:20.580Z,101602.56
2022-11-28T09:20:48.565Z,101597.53
2022-11-28T09:23:16.492Z,101593.41
2022-11-28T09:25:44.393Z,101588.19
2022-11-28T09:28:12.324Z,101583.75
2022-11-28T09:30:40.283Z,101578.53
2022-11-28T09:33:09.741Z,101560.25
2022-11-28T09:35:39.446Z,101577.41
2022-11-28T09:38:07.569Z,101582.63
2022-11-28T09:40:39.119Z,101578.75
2022-11-28T09:43:16.445Z,101574.81
2022-11-28T09:45:45.986Z,101574.94
2022-11-28T09:48:26.762Z,101571.44
2022-11-28T09:50:59.829Z,101570.50
2022-11-28T09:53:35.773Z,101569.78
2022-11-28T09:56:12.346Z,101562.22
2022-11-28T09:58:45.393Z,101558.81
2022-11-28T10:01:22.429Z,101557.97
2022-11-28T10:03:59.288Z,101547.44
2022-11-28T10:06:35.208Z,101555.78
2022-11-28T10:09:31.946Z,101544.44
2022-11-28T10:12:15.271Z,101539.03
2022-11-28T10:15:04.077Z,101534.78
2022-11-28T10:17:44.483Z,101523.81
2022-11-28T10:20:19.863Z,101527.50
2022-11-28T10:22:51.387Z,101524.03
2022-11-28T10:25:23.581Z,101518.41
2022-11-28T10:27:52.335Z,101521.13
2022-11-28T10:30:24.023Z,101521.25
2022-11-28T10:32:59.137Z,101530.47
2022-11-28T10:35:35.344Z,101522.00
2022-11-28T10:38:03.844Z,101515.25
2022-11-28T10:40:43.106Z,101516.50
2022-11-28T10:43:21.162Z,101519.50
2022-11-28T10:46:00.265Z,101511.13
2022-11-28T10:48:40.433Z,101495.75
2022-11-28T10:51:23.269Z,101498.09
2022-11-28T10:54:02.790Z,101501.13
2022-11-28T10:56:39.969Z,101492.72
2022-11-28T10:59:22.021Z,101495.91
2022-11-28T11:01:52.370Z,101498.75
2022-11-28T11:04:23.764Z,101497.75
2022-11-28T11:07:10.607Z,101490.94
2022-11-28T11:09:41.238Z,101502.78
2022-11-28T11:12:18.966Z,101498.53
2022-11-28T11:14:47.741Z,101474.00
2022-11-28T11:17:36.130Z,101482.78
2022-11-28T11:20:27.008Z,101478.72
2022-11-28T11:22:58.004Z,101477.31
2022-11-28T11:25:27.260Z,101470.06
2022-11-28T11:27:58.038Z,101469.97
2022-11-28T11:30:29.078Z,101467.22
2022-11-28T11:32:58.634Z,101457.75
2022-11-28T11:35:28.820Z,101464.91
2022-11-28T11:38:17.709Z,101456.13
2022-11-28T11:40:46.017Z,101456.38
2022-11-28T11:43:29.777Z,101462.47
2022-11-28T11:46:08.857Z,101456.03
2022-11-28T11:48:38.740Z,101460.69
2022-11-28T11:51:08.165Z,101458.34
2022-11-28T11:53:37.485Z,101462.78
2022-11-28T11:56:05.712Z,101465.63
2022-11-28T11:58:42.212Z,101463.31
2022-11-28T12:01:13.239Z,101452.66
2022-11-28T12:03:43.792Z,101453.41
2022-11-28T12:06:16.957Z,101458.28
2022-11-28T12:08:51.817Z,101463.25
2022-11-28T12:11:25.197Z,101463.59
2022-11-28T12:13:53.989Z,101442.50
2022-11-28T12:16:42.603Z,101457.78
2022-11-28T12:19:24.515Z,101464.47
2022-11-28T12:22:05.629Z,101457.56
2022-11-28T12:24:47.472Z,101454.06
2022-11-28T12:27:26.950Z,101457.28
2022-11-28T12:30:07.516Z,101460.13
2022-11-28T12:32:48.178Z,101449.00
2022-11-28T12:35:28.868Z,101440.41
2022-11-28T12:38:11.661Z,101444.06
2022-11-28T12:40:53.453Z,101448.50
2022-11-28T12:43:35.617Z,101442.09
2022-11-28T12:46:11.083Z,101444.69
2022-11-28T12:48:55.064Z,101443.13
2022-11-28T12:51:30.696Z,101445.53
2022-11-28T12:54:14.702Z,101450.97
2022-11-28T12:56:50.293Z,101451.16
2022-11-28T12:59:25.916Z,101443.69
2022-11-28T13:02:05.232Z,101448.53
2022-11-28T13:04:53.888Z,101452.00
2022-11-28T13:07:33.847Z,101460.47
2022-11-28T13:10:15.029Z,101453.53
2022-11-28T13:12:51.797Z,101456.38
2022-11-28T13:15:29.525Z,101443.78
2022-11-28T13:18:01.881Z,101461.47
2022-11-28T13:20:34.375Z,101453.38
2022-11-28T13:23:12.735Z,101447.84
2022-11-28T13:25:48.964Z,101452.88
2022-11-28T13:28:23.485Z,101466.38
2022-11-28T13:30:54.341Z,101464.69
2022-11-28T13:33:36.583Z,101471.44
2022-11-28T13:36:09.218Z,101471.03
2022-11-28T13:39:11.296Z,101471.28
2022-11-28T13:42:21.251Z,101471.53
2022-11-28T13:44:43.139Z,101468.66
2022-11-28T13:47:16.109Z,101460.94
2022-11-28T13:49:44.049Z,101460.56
2022-11-28T13:52:43.228Z,101456.63
2022-11-28T13:55:38.574Z,101472.06
2022-11-28T13:58:17.359Z,101472.69
2022-11-28T14:01:10.464Z,101463.63
2022-11-28T14:03:47.889Z,101473.47
2022-11-28T14:06:19.525Z,101470.19
2022-11-28T14:08:50.111Z,101466.97
2022-11-28T14:11:47.566Z,101470.00
2022-11-28T14:14:34.583Z,101471.69
2022-11-28T14:17:16.627Z,101472.44
2022-11-28T14:20:00.705Z,101471.56
2022-11-28T14:22:52.823Z,101472.81
2022-11-28T14:25:25.065Z,101462.13
2022-11-28T14:27:55.472Z,101464.63
2022-11-28T14:30:30.314Z,101474.00
2022-11-28T14:33:02.495Z,101471.31
2022-11-28T14:36:07.614Z,101476.78
2022-11-28T14:38:46.308Z,101469.25
2022-11-28T14:41:15.371Z,101472.88
2022-11-28T14:43:46.327Z,101475.13
2022-11-28T14:46:31.892Z,101471.13
2022-11-28T14:49:25.132Z,101478.03
2022-11-28T14:52:41.579Z,101474.44
2022-11-28T14:55:20.650Z,101483.00
2022-11-28T14:57:59.171Z,101481.53
2022-11-28T15:00:29.698Z,101472.09
2022-11-28T15:03:11.380Z,101477.47
2022-11-28T15:05:46.341Z,101465.63
2022-11-28T15:08:28.640Z,101473.22
2022-11-28T15:11:09.883Z,101464.66
2022-11-28T15:13:50.679Z,101472.53
2022-11-28T15:16:21.476Z,101471.47
2022-11-28T15:18:52.181Z,101472.59
2022-11-28T15:21:22.315Z,101465.84
2022-11-28T15:23:52.697Z,101474.44
2022-11-28T15:26:23.144Z,101481.69
2022-11-28T15:29:10.367Z,101463.53
2022-11-28T15:31:38.994Z,101471.75
2022-11-28T15:34:10.082Z,101484.72
2022-11-28T15:36:40.444Z,101468.91
2022-11-28T15:39:25.943Z,101481.03
2022-11-28T15:41:54.141Z,101470.41
2022-11-28T15:44:22.149Z,101469.94
2022-11-28T15:46:50.423Z,101472.44
2022-11-28T15:49:26.369Z,101470.03
2022-11-28T15:51:59.803Z,101471.44
2022-11-28T15:54:41.023Z,101475.81
2022-11-28T15:57:19.485Z,101477.22
2022-11-28T15:59:47.524Z,101493.84
2022-11-28T16:02:22.725Z,101487.97
2022-11-28T16:04:54.643Z,101487.97
2022-11-28T16:07:24.082Z,101469.03
2022-11-28T16:09:59.609Z,101480.06
2022-11-28T16:12:28.708Z,101481.25
2022-11-28T16:15:01.870Z,101467.75
2022-11-28T16:17:34.243Z,101490.19
2022-11-28T16:20:03.714Z,101483.16
2022-11-28T16:22:37.102Z,101491.59
2022-11-28T16:25:15.645Z,101474.53
2022-11-28T16:27:48.721Z,101483.03
2022-11-28T16:30:44.772Z,101481.50
2022-11-28T16:33:38.657Z,101485.75
2022-11-28T16:36:11.908Z,101482.16
2022-11-28T16:38:41.299Z,101476.94
2022-11-28T16:41:16.632Z,101472.47
2022-11-28T16:43:48.727Z,101471.97
2022-11-28T16:46:21.282Z,101468.41
2022-11-28T16:48:51.537Z,101471.69
2022-11-28T16:51:31.141Z,101473.59
2022-11-28T16:54:01.371Z,101470.53
2022-11-28T16:56:44.917Z,101473.75
2022-11-28T16:59:14.515Z,101467.84
2022-11-28T17:01:43.933Z,101470.94
2022-11-28T17:04:21.988Z,101469.41
2022-11-28T17:06:50.579Z,101474.63
2022-11-28T17:09:20.469Z,101477.41
2022-11-28T17:11:55.576Z,101471.56
2022-11-28T17:14:23.818Z,101470.84
2022-11-28T17:16:51.955Z,101468.16
2022-11-28T17:19:19.891Z,101475.72
2022-11-28T17:21:50.813Z,101472.03
2022-11-28T17:24:21.821Z,101471.06
2022-11-28T17:26:50.613Z,101477.28
2022-11-28T17:29:18.589Z,101469.72
2022-11-28T17:31:48.090Z,101471.66
2022-11-28T17:34:17.955Z,101469.97
2022-11-28T17:36:46.263Z,101436.75
2022-11-28T17:39:14.576Z,101469.03
2022-11-28T17:41:44.545Z,101469.91
2022-11-28T17:44:17.498Z,101470.03
2022-11-28T17:46:45.466Z,101469.25
2022-11-28T17:49:13.666Z,101476.28
2022-11-28T17:51:41.615Z,101446.31
2022-11-28T17:54:12.233Z,101459.75
2022-11-28T17:56:40.141Z,101456.22
2022-11-28T17:59:10.176Z,101461.59
2022-11-28T18:01:38.182Z,101458.31
2022-11-28T18:04:06.564Z,101462.56
2022-11-28T18:06:34.666Z,101470.34
2022-11-28T18:09:10.124Z,101470.59
2022-11-28T18:11:39.798Z,101459.56
2022-11-28T18:14:09.227Z,101461.94
2022-11-28T18:16:37.240Z,101455.94
2022-11-28T18:19:05.604Z,101458.53
2022-11-28T18:21:33.552Z,101458.31
2022-11-28T18:24:01.770Z,101468.53
2022-11-28T18:26:29.728Z,101455.94
2022-11-28T18:28:57.690Z,101457.88
2022-11-28T18:31:28.917Z,101428.00
2022-11-28T18:34:01.578Z,101460.44
2022-11-28T18:36:31.894Z,101455.31
2022-11-28T18:39:01.387Z,101452.19
2022-11-28T18:41:30.407Z,101442.53
2022-11-28T18:43:59.838Z,101446.72
2022-11-28T18:46:30.034Z,101447.47
2022-11-28T18:48:58.368Z,101453.50
2022-11-28T18:51:28.362Z,101450.97
2022-11-28T18:53:57.422Z,101436.25
2022-11-28T18:56:26.377Z,101446.53
2022-11-28T18:58:55.536Z,101450.06
2022-11-28T19:01:28.482Z,101457.69
2022-11-28T19:03:59.629Z,101454.16
2022-11-28T19:06:27.946Z,101456.97
2022-11-28T19:08:57.860Z,101433.03
2022-11-28T19:11:27.311Z,101449.06
2022-11-28T19:13:56.082Z,101463.69
2022-11-28T19:16:26.060Z,101457.59
2022-11-28T19:18:54.240Z,101453.31
2022-11-28T19:21:26.079Z,101460.00
2022-11-28T19:23:56.376Z,101442.13
2022-11-28T19:26:25.823Z,101443.09
2022-11-28T19:28:54.435Z,101449.66
2022-11-28T19:31:24.019Z,101447.88
2022-11-28T19:34:00.537Z,101446.34
2022-11-28T19:36:31.844Z,101456.94
2022-11-28T19:39:00.266Z,101463.69
2022-11-28T19:41:29.338Z,101453.41
2022-11-28T19:43:57.437Z,101448.38
2022-11-28T19:46:29.180Z,101449.06
2022-11-28T19:49:00.052Z,101454.78
2022-11-28T19:51:28.337Z,101452.03
2022-11-28T19:54:02.888Z,101445.13
2022-11-28T19:56:32.530Z,101445.31
2022-11-28T19:59:01.008Z,101431.91
2022-11-28T20:01:29.273Z,101438.94
2022-11-28T20:03:58.857Z,101446.66
2022-11-28T20:06:28.972Z,101439.13
2022-11-28T20:09:00.452Z,101441.38
2022-11-28T20:11:29.815Z,101445.50
2022-11-28T20:13:58.872Z,101452.25
2022-11-28T20:16:27.330Z,101449.81
2022-11-28T20:18:55.298Z,101444.59
2022-11-28T20:21:23.240Z,101448.59
2022-11-28T20:23:52.564Z,101434.94
2022-11-28T20:26:24.304Z,101446.91
2022-11-28T20:28:52.241Z,101445.97
2022-11-28T20:31:22.139Z,101437.50
2022-11-28T20:33:50.477Z,101445.91
2022-11-28T20:36:20.562Z,101438.16
2022-11-28T20:38:49.470Z,101437.22
2022-11-28T20:41:19.627Z,101438.78
2022-11-28T20:43:49.395Z,101433.69
2022-11-28T20:46:19.497Z,101437.00
2022-11-28T20:48:47.988Z,101439.50
2022-11-28T20:51:18.365Z,101439.69
2022-11-28T20:53:46.719Z,101444.00
2022-11-28T20:56:17.740Z,101444.00
2022-11-28T20:58:46.480Z,101448.06
2022-11-28T21:01:17.490Z,101441.28
2022-11-28T21:03:45.688Z,101448.06
2022-11-28T21:06:13.983Z,101451.44
2022-11-28T21:08:42.202Z,101421.59
2022-11-28T21:11:30.644Z,101438.28
2022-11-28T21:14:02.257Z,101439.72
2022-11-28T21:16:33.089Z,101436.00
2022-11-28T21:19:04.767Z,101444.38
2022-11-28T21:21:34.495Z,101445.47
2022-11-28T21:24:05.298Z,101442.50
2022-11-28T21:26:40.925Z,101446.53
2022-11-28T21:29:13.138Z,101453.84
2022-11-28T21:31:45.162Z,101460.53
2022-11-28T21:34:14.817Z,101453.38
2022-11-28T21:36:43.033Z,101427.84
2022-11-28T21:39:14.126Z,101453.38
2022-11-28T21:41:42.164Z,101457.47
2022-11-28T21:44:10.159Z,101458.00
2022-11-28T21:46:38.098Z,101447.91
2022-11-28T21:49:07.453Z,101448.88
2022-11-28T21:51:35.387Z,101452.97
2022-11-28T21:54:03.321Z,101448.81
2022-11-28T21:56:31.267Z,101449.31
2022-11-28T21:58:59.200Z,101444.50
2022-11-28T22:01:27.213Z,101435.00
2022-11-28T22:04:00.616Z,101438.44
2022-11-28T22:06:31.411Z,101430.06
2022-11-28T22:09:02.248Z,101434.69
2022-11-28T22:11:35.151Z,101431.38
2022-11-28T22:14:03.076Z,101426.09
2022-11-28T22:16:31.544Z,101442.41
2022-11-28T22:19:01.139Z,101430.44
2022-11-28T22:21:51.217Z,101436.09
2022-11-28T22:24:18.676Z,101438.75
2022-11-28T22:26:46.632Z,101409.13
2022-11-28T22:29:15.028Z,101437.19
2022-11-28T22:31:43.122Z,101436.69
2022-11-28T22:34:11.210Z,101430.44
2022-11-28T22:36:39.364Z,101420.44
2022-11-28T22:39:07.661Z,101420.06
2022-11-28T22:41:36.994Z,101420.19
2022-11-28T22:44:05.327Z,101416.91
2022-11-28T22:46:34.145Z,101417.66
2022-11-28T22:49:02.493Z,101418.69
2022-11-28T22:51:31.030Z,101415.28
2022-11-28T22:54:01.198Z,101405.78
2022-11-28T22:56:30.477Z,101405.88
2022-11-28T22:59:00.426Z,101410.28
2022-11-28T23:01:30.226Z,101415.66
2022-11-28T23:03:58.433Z,101412.91
2022-11-28T23:06:28.918Z,101403.59
2022-11-28T23:08:57.895Z,101418.56
2022-11-28T23:11:28.884Z,101415.19
2022-11-28T23:13:58.035Z,101393.31
2022-11-28T23:16:30.189Z,101404.22
2022-11-28T23:19:04.498Z,101394.31
2022-11-28T23:21:32.897Z,101404.59
2022-11-28T23:24:00.918Z,101401.34
2022-11-28T23:26:31.060Z,101397.88
2022-11-28T23:29:00.585Z,101399.84
2022-11-28T23:31:31.631Z,101385.25
2022-11-28T23:34:00.917Z,101385.09
2022-11-28T23:36:30.472Z,101391.03
2022-11-28T23:39:00.577Z,101388.66
2022-11-28T23:41:29.967Z,101396.34
2022-11-28T23:43:58.792Z,101395.69
2022-11-28T23:46:29.889Z,101389.56
2022-11-28T23:48:57.983Z,101390.41
2022-11-28T23:51:27.320Z,101390.22
2022-11-28T23:53:55.650Z,101385.31
2022-11-28T23:56:25.171Z,101389.50
2022-11-28T23:58:54.024Z,101396.34
